Time;durP1;ratioP1;P1;durP2;ratioP2;P2;SDS_P1;SDS_P2;PMS_P1;PMS_P2;Temp;Humidity;BMP_temperature;BMP_pressure;BME280_temperature;BME280_humidity;BME280_pressure;Samples;Min_cycle;Max_cycle;Signal;HPM_P1;HPM_P2
2023/12/21 00:01:37;;;;;;;5.47;5.17;;;10.60;99.90;;;;;;5073847;28;20901;-75
2023/12/21 00:04:04;;;;;;;5.47;5.17;;;10.70;99.90;;;;;;5098283;28;20195;-76
2023/12/21 00:06:30;;;;;;;5.53;5.23;;;10.70;99.90;;;;;;5112515;27;20183;-76
2023/12/21 00:08:56;;;;;;;5.13;4.93;;;10.60;99.90;;;;;;5083168;28;20460;-78
2023/12/21 00:11:22;;;;;;;5.57;5.30;;;10.60;99.90;;;;;;5088600;28;20446;-76
2023/12/21 00:13:48;;;;;;;5.67;5.37;;;10.70;99.90;;;;;;5071952;28;20532;-73
2023/12/21 00:16:14;;;;;;;5.60;5.40;;;10.70;99.90;;;;;;5072255;28;20454;-79
2023/12/21 00:18:40;;;;;;;5.70;5.40;;;10.70;99.90;;;;;;5072542;28;20181;-78
2023/12/21 00:21:06;;;;;;;5.77;5.47;;;10.70;99.90;;;;;;5071837;28;20594;-79
2023/12/21 00:23:32;;;;;;;5.80;5.50;;;10.70;99.90;;;;;;5085079;28;20230;-78
2023/12/21 00:25:58;;;;;;;5.67;5.47;;;10.70;99.90;;;;;;5091636;28;20408;-79
2023/12/21 00:28:24;;;;;;;5.90;5.60;;;10.70;99.90;;;;;;5092358;28;20226;-78
2023/12/21 00:30:49;;;;;;;5.80;5.50;;;10.70;99.90;;;;;;5091796;28;20175;-77
2023/12/21 00:33:15;;;;;;;5.50;5.20;;;10.70;99.90;;;;;;5090311;28;20509;-78
2023/12/21 00:35:41;;;;;;;5.67;5.37;;;10.70;99.90;;;;;;5087363;28;20243;-77
2023/12/21 00:38:07;;;;;;;5.90;5.60;;;10.70;99.90;;;;;;5084363;28;20793;-77
2023/12/21 00:40:32;;;;;;;5.80;5.50;;;10.80;99.90;;;;;;5082014;28;20195;-77
2023/12/21 00:42:58;;;;;;;5.50;5.20;;;10.80;99.90;;;;;;5072390;28;20184;-77
2023/12/21 00:45:24;;;;;;;5.27;4.97;;;10.80;99.90;;;;;;5073175;28;20205;-76
2023/12/21 00:47:50;;;;;;;5.00;4.80;;;10.90;99.90;;;;;;5074660;28;20595;-77
2023/12/21 00:50:16;;;;;;;5.10;4.90;;;11.00;99.90;;;;;;5072144;28;20479;-79
2023/12/21 00:52:42;;;;;;;5.20;4.80;;;10.90;99.90;;;;;;5071871;28;20163;-78
2023/12/21 00:55:08;;;;;;;5.57;5.27;;;11.00;99.90;;;;;;5084808;28;20259;-79
2023/12/21 00:57:34;;;;;;;5.50;5.20;;;11.00;99.90;;;;;;5091128;28;20919;-77
2023/12/21 01:00:00;;;;;;;4.43;4.33;;;10.90;99.90;;;;;;5091380;28;20575;-78
2023/12/21 01:02:25;;;;;;;5.23;4.90;;;10.80;99.90;;;;;;5090621;28;20168;-78
2023/12/21 01:04:51;;;;;;;4.80;4.60;;;10.90;99.90;;;;;;5091425;28;20544;-76
2023/12/21 01:07:17;;;;;;;4.60;4.40;;;10.90;99.90;;;;;;5108455;28;20182;-78
2023/12/21 01:09:43;;;;;;;4.70;4.50;;;10.80;99.90;;;;;;5112510;28;20175;-78
2023/12/21 01:12:09;;;;;;;4.77;4.57;;;10.80;99.90;;;;;;5110537;28;20393;-78
2023/12/21 01:14:34;;;;;;;4.33;4.17;;;10.90;99.90;;;;;;5101672;28;20224;-78
2023/12/21 01:17:00;;;;;;;4.37;4.27;;;11.00;99.90;;;;;;5091048;28;20521;-78
2023/12/21 01:19:26;;;;;;;4.53;4.30;;;10.90;99.90;;;;;;5092289;28;20258;-78
2023/12/21 01:21:52;;;;;;;4.60;4.40;;;10.90;99.90;;;;;;5089164;28;20174;-76
2023/12/21 01:24:18;;;;;;;4.87;4.57;;;10.90;99.90;;;;;;5091149;28;20203;-79
2023/12/21 01:26:44;;;;;;;4.80;4.60;;;11.00;99.90;;;;;;5091747;28;20501;-77
2023/12/21 01:29:10;;;;;;;4.80;4.70;;;10.90;99.90;;;;;;5091733;28;20593;-77
2023/12/21 01:31:36;;;;;;;4.93;4.73;;;11.00;99.90;;;;;;5092271;28;20721;-77
2023/12/21 01:34:01;;;;;;;5.07;4.87;;;10.90;99.90;;;;;;5089351;28;20398;-77
2023/12/21 01:36:28;;;;;;;4.60;4.47;;;10.90;99.90;;;;;;5094969;28;20215;-77
2023/12/21 01:38:54;;;;;;;4.73;4.60;;;11.00;99.90;;;;;;5091137;28;20237;-76
2023/12/21 01:41:20;;;;;;;4.70;4.50;;;10.90;99.90;;;;;;5108712;27;20414;-79
2023/12/21 01:43:46;;;;;;;4.90;4.60;;;11.00;99.90;;;;;;5096163;28;20409;-78
2023/12/21 01:46:12;;;;;;;5.13;4.93;;;11.00;99.90;;;;;;5127289;27;20183;-78
2023/12/21 01:48:41;;;;;;;4.53;4.33;;;11.10;99.90;;;;;;5095410;28;20196;-78
2023/12/21 01:51:08;;;;;;;4.67;4.50;;;11.00;99.90;;;;;;5095468;28;20429;-78
2023/12/21 01:53:36;;;;;;;4.80;4.60;;;11.00;99.90;;;;;;5094501;28;20810;-78
2023/12/21 01:56:03;;;;;;;4.30;4.20;;;11.00;99.90;;;;;;5077820;28;20922;-78
2023/12/21 01:58:31;;;;;;;4.53;4.40;;;11.00;99.90;;;;;;5095041;28;20932;-78
2023/12/21 02:00:58;;;;;;;4.80;4.60;;;11.00;99.90;;;;;;5094923;28;20936;-79
2023/12/21 02:03:26;;;;;;;4.90;4.70;;;11.00;99.90;;;;;;5095817;28;20446;-78
2023/12/21 02:05:51;;;;;;;4.40;4.30;;;11.00;99.90;;;;;;5103249;28;20437;-78
2023/12/21 02:08:17;;;;;;;4.33;4.23;;;11.00;99.90;;;;;;5115998;28;20912;-79
2023/12/21 02:10:43;;;;;;;4.57;4.37;;;11.00;99.90;;;;;;5115654;28;20179;-78
2023/12/21 02:13:09;;;;;;;5.17;4.97;;;11.00;99.90;;;;;;5114399;28;20190;-77
2023/12/21 02:15:35;;;;;;;4.27;4.17;;;11.00;99.90;;;;;;5094619;28;20466;-78
2023/12/21 02:18:03;;;;;;;4.33;4.23;;;11.00;99.90;;;;;;5089236;28;20260;-77
2023/12/21 02:20:29;;;;;;;4.93;4.67;;;11.00;99.90;;;;;;5094126;28;20471;-75
2023/12/21 02:22:59;;;;;;;5.13;4.93;;;11.00;99.90;;;;;;5127522;27;20800;-78
2023/12/21 02:25:25;;;;;;;4.80;4.60;;;11.10;99.90;;;;;;5093293;28;20410;-79
2023/12/21 02:27:51;;;;;;;4.57;4.43;;;11.10;99.90;;;;;;5094962;28;20461;-62
2023/12/21 02:30:17;;;;;;;4.77;4.57;;;11.20;99.90;;;;;;5093951;28;20922;-81
2023/12/21 02:32:43;;;;;;;5.07;4.87;;;11.20;99.90;;;;;;5095230;28;20396;-77
2023/12/21 02:35:09;;;;;;;5.57;5.27;;;11.20;99.90;;;;;;5094700;28;20499;-76
2023/12/21 02:37:34;;;;;;;5.67;5.23;;;11.20;99.90;;;;;;5101076;28;20416;-78
2023/12/21 02:40:00;;;;;;;5.40;5.20;;;11.30;99.90;;;;;;5073696;28;20617;-78
2023/12/21 02:42:26;;;;;;;5.10;4.90;;;11.30;99.90;;;;;;5076980;28;20195;-78
2023/12/21 02:44:52;;;;;;;5.27;5.00;;;11.20;99.90;;;;;;5073148;28;20427;-67
2023/12/21 02:47:18;;;;;;;4.93;4.73;;;11.20;99.90;;;;;;5073561;28;20572;-79
2023/12/21 02:49:43;;;;;;;5.00;4.80;;;11.20;99.90;;;;;;5074253;28;20180;-80
2023/12/21 02:52:09;;;;;;;5.60;5.33;;;11.20;99.90;;;;;;5072601;28;20229;-78
2023/12/21 02:54:35;;;;;;;5.00;4.80;;;11.20;99.90;;;;;;5073744;28;20196;-79
2023/12/21 02:57:01;;;;;;;5.30;5.00;;;11.30;99.90;;;;;;5088700;28;20691;-79
2023/12/21 02:59:26;;;;;;;4.63;4.43;;;11.20;99.90;;;;;;5089729;28;20184;-80
2023/12/21 03:01:52;;;;;;;5.20;5.00;;;11.20;99.90;;;;;;5073798;28;20170;-82
2023/12/21 03:04:18;;;;;;;5.60;5.30;;;11.20;99.90;;;;;;5073566;28;20210;-83
2023/12/21 03:06:44;;;;;;;5.27;5.07;;;11.30;99.90;;;;;;5109220;28;20184;-79
2023/12/21 03:09:10;;;;;;;5.63;5.33;;;11.20;99.90;;;;;;5112520;28;20207;-81
2023/12/21 03:11:36;;;;;;;5.03;4.83;;;11.20;99.90;;;;;;5114161;28;20551;-81
2023/12/21 03:14:02;;;;;;;4.73;4.63;;;11.20;99.90;;;;;;5097115;28;20423;-79
2023/12/21 03:16:28;;;;;;;4.77;4.57;;;11.20;99.90;;;;;;5091426;28;20422;-81
2023/12/21 03:18:54;;;;;;;5.00;4.80;;;11.20;99.90;;;;;;5078790;28;20422;-68
2023/12/21 03:21:20;;;;;;;5.00;4.80;;;11.20;99.90;;;;;;5084313;28;20961;-79
2023/12/21 03:23:45;;;;;;;5.20;5.00;;;11.20;99.90;;;;;;5073574;28;20187;-80
2023/12/21 03:26:11;;;;;;;4.77;4.60;;;11.20;99.90;;;;;;5092536;28;20187;-80
2023/12/21 03:28:44;;;;;;;4.90;4.70;;;11.20;99.90;;;;;;5093509;28;20202;-76
2023/12/21 03:31:10;;;;;;;4.50;4.30;;;11.30;99.90;;;;;;5093024;28;20167;-77
2023/12/21 03:33:36;;;;;;;4.47;4.27;;;11.20;99.90;;;;;;5084898;28;20417;-78
2023/12/21 03:36:03;;;;;;;4.70;4.40;;;11.20;99.90;;;;;;5098047;28;20478;-77
2023/12/21 03:38:28;;;;;;;4.33;4.23;;;11.20;99.90;;;;;;5108340;28;20182;-78
2023/12/21 03:40:54;;;;;;;4.73;4.53;;;11.20;99.90;;;;;;5111065;28;20771;-78
2023/12/21 03:43:20;;;;;;;4.50;4.30;;;11.20;99.90;;;;;;5092463;28;20667;-78
2023/12/21 03:45:46;;;;;;;4.73;4.40;;;11.20;99.90;;;;;;5093603;28;20641;-78
2023/12/21 03:48:12;;;;;;;4.70;4.50;;;11.20;99.90;;;;;;5092448;28;20462;-76
2023/12/21 03:50:37;;;;;;;4.30;4.10;;;11.30;99.90;;;;;;5092974;28;20174;-76
2023/12/21 03:53:03;;;;;;;4.10;4.00;;;11.20;99.90;;;;;;5092482;28;20271;-76
2023/12/21 03:55:30;;;;;;;4.10;4.00;;;11.20;99.90;;;;;;5093232;28;20192;-78
2023/12/21 03:57:58;;;;;;;4.57;4.37;;;11.20;99.90;;;;;;5093195;28;20411;-78
2023/12/21 04:00:25;;;;;;;4.50;4.30;;;11.20;99.90;;;;;;5092430;28;20405;-78
2023/12/21 04:02:50;;;;;;;4.20;4.10;;;11.20;99.90;;;;;;5113533;28;20405;-76
2023/12/21 04:05:16;;;;;;;4.00;3.80;;;11.10;99.90;;;;;;5089757;28;20530;-78
2023/12/21 04:07:42;;;;;;;4.20;4.00;;;11.10;99.90;;;;;;5091823;28;20200;-78
2023/12/21 04:10:08;;;;;;;4.30;4.10;;;11.10;99.90;;;;;;5092243;28;20168;-78
2023/12/21 04:12:33;;;;;;;4.37;4.27;;;11.10;99.90;;;;;;5092878;28;20616;-77
2023/12/21 04:14:59;;;;;;;4.30;4.20;;;11.10;99.90;;;;;;5078602;28;20227;-65
2023/12/21 04:17:25;;;;;;;4.20;4.10;;;11.10;99.90;;;;;;5072185;28;20189;-78
2023/12/21 04:19:51;;;;;;;4.43;4.23;;;11.10;99.90;;;;;;5088200;28;20253;-77
2023/12/21 04:22:17;;;;;;;4.33;4.20;;;11.20;99.90;;;;;;5070448;28;20706;-78
2023/12/21 04:24:44;;;;;;;4.37;4.17;;;11.20;99.90;;;;;;5072398;28;20416;-79
2023/12/21 04:27:10;;;;;;;4.10;4.00;;;11.10;99.90;;;;;;5071656;28;20257;-78
2023/12/21 04:29:38;;;;;;;4.20;4.10;;;11.10;99.90;;;;;;5083952;28;20813;-78
2023/12/21 04:32:04;;;;;;;4.80;4.60;;;11.10;99.90;;;;;;5105160;28;20426;-75
2023/12/21 04:34:30;;;;;;;4.80;4.60;;;11.10;99.90;;;;;;5112946;28;20406;-77
2023/12/21 04:36:56;;;;;;;5.10;4.80;;;11.10;99.90;;;;;;5112658;28;20458;-76
2023/12/21 04:39:22;;;;;;;5.13;4.73;;;11.10;99.90;;;;;;5092405;28;20212;-78
2023/12/21 04:41:49;;;;;;;4.60;4.30;;;11.00;99.90;;;;;;5072426;28;20180;-77
2023/12/21 04:44:14;;;;;;;4.27;4.10;;;11.10;99.90;;;;;;5071090;28;20407;-80
2023/12/21 04:46:40;;;;;;;4.30;4.20;;;11.10;99.90;;;;;;5072279;28;20506;-79
2023/12/21 04:49:06;;;;;;;4.20;4.00;;;11.10;99.90;;;;;;5080619;28;20210;-77
2023/12/21 04:51:32;;;;;;;4.10;4.00;;;11.00;99.90;;;;;;5092421;28;20180;-78
2023/12/21 04:53:57;;;;;;;4.03;3.93;;;11.10;99.90;;;;;;5090574;28;20505;-78
2023/12/21 04:56:23;;;;;;;4.33;4.03;;;11.10;99.90;;;;;;5091303;28;20551;-78
2023/12/21 04:58:49;;;;;;;4.00;3.80;;;11.10;99.90;;;;;;5092636;28;20750;-78
2023/12/21 05:01:15;;;;;;;4.50;4.30;;;11.10;99.90;;;;;;5091503;28;20165;-79
2023/12/21 05:03:40;;;;;;;4.13;3.83;;;11.20;99.90;;;;;;5090200;28;20180;-77
2023/12/21 05:06:07;;;;;;;4.13;4.03;;;11.20;99.90;;;;;;5084291;28;20188;-77
2023/12/21 05:08:32;;;;;;;4.07;3.93;;;11.20;99.90;;;;;;5080873;28;20468;-81
2023/12/21 05:10:58;;;;;;;4.10;3.90;;;11.20;99.90;;;;;;5073040;28;20204;-81
2023/12/21 05:13:24;;;;;;;4.00;3.80;;;11.10;99.90;;;;;;5075794;28;20168;-82
2023/12/21 05:15:49;;;;;;;3.67;3.57;;;11.10;99.90;;;;;;5091981;28;20309;-81
2023/12/21 05:18:15;;;;;;;3.50;3.30;;;11.10;99.90;;;;;;5094272;28;20264;-80
2023/12/21 05:20:41;;;;;;;3.60;3.50;;;11.00;99.90;;;;;;5092388;28;20175;-81
2023/12/21 05:23:07;;;;;;;3.60;3.50;;;11.00;99.90;;;;;;5093251;28;20173;-78
2023/12/21 05:25:33;;;;;;;4.80;4.50;;;11.10;99.90;;;;;;5092257;28;20422;-82
2023/12/21 05:27:58;;;;;;;3.30;3.20;;;11.10;99.90;;;;;;5091237;28;20211;-81
2023/12/21 05:30:24;;;;;;;3.30;3.20;;;11.10;99.90;;;;;;5122314;27;20793;-82
2023/12/21 05:32:50;;;;;;;3.40;3.30;;;11.10;99.90;;;;;;5091634;28;20225;-82
2023/12/21 05:35:16;;;;;;;3.77;3.57;;;11.10;99.90;;;;;;5083371;28;20173;-82
2023/12/21 05:37:42;;;;;;;2.90;2.80;;;11.10;99.90;;;;;;5107251;28;20177;-82
2023/12/21 05:40:08;;;;;;;4.07;3.87;;;11.10;99.90;;;;;;5095653;28;20415;-82
2023/12/21 05:42:34;;;;;;;3.33;3.23;;;11.10;99.90;;;;;;5096219;28;20407;-81
2023/12/21 05:45:00;;;;;;;3.90;3.70;;;11.00;99.90;;;;;;5094654;28;20428;-79
2023/12/21 05:47:26;;;;;;;4.33;4.03;;;11.00;99.90;;;;;;5122591;27;20432;-81
2023/12/21 05:49:52;;;;;;;3.53;3.33;;;11.00;99.90;;;;;;5104150;28;20237;-80
2023/12/21 05:52:17;;;;;;;3.17;3.07;;;11.10;99.90;;;;;;5094060;28;20266;-82
2023/12/21 05:54:43;;;;;;;2.90;2.80;;;11.10;99.90;;;;;;5089572;28;20523;-69
2023/12/21 05:57:12;;;;;;;3.20;2.93;;;11.10;99.90;;;;;;5092048;28;20182;-69
2023/12/21 05:59:38;;;;;;;3.70;3.60;;;11.10;99.90;;;;;;5082881;28;20179;-69
2023/12/21 06:02:04;;;;;;;3.70;3.50;;;11.10;99.90;;;;;;5081215;28;20839;-61
2023/12/21 06:04:30;;;;;;;4.30;4.10;;;11.00;99.90;;;;;;5088872;28;20209;-69
2023/12/21 06:06:56;;;;;;;3.73;3.63;;;11.00;99.90;;;;;;5083792;28;20427;-69
2023/12/21 06:09:22;;;;;;;3.63;3.53;;;11.00;99.90;;;;;;5088991;28;20454;-69
2023/12/21 06:11:48;;;;;;;3.50;3.40;;;10.90;99.90;;;;;;5095358;28;20475;-69
2023/12/21 06:14:14;;;;;;;3.70;3.60;;;11.00;99.90;;;;;;5086174;28;20458;-69
2023/12/21 06:16:40;;;;;;;4.03;3.83;;;11.00;99.90;;;;;;5095840;28;20406;-69
2023/12/21 06:19:09;;;;;;;3.70;3.60;;;11.00;99.90;;;;;;5094918;28;21005;-68
2023/12/21 06:21:38;;;;;;;4.00;3.90;;;11.00;99.90;;;;;;5088594;28;20174;-69
2023/12/21 06:24:05;;;;;;;3.70;3.60;;;11.00;99.90;;;;;;5100102;28;20422;-69
2023/12/21 06:26:31;;;;;;;4.10;3.90;;;11.00;99.90;;;;;;5113417;28;20432;-69
2023/12/21 06:28:57;;;;;;;4.17;3.97;;;11.10;99.90;;;;;;5100551;28;20456;-69
2023/12/21 06:31:23;;;;;;;4.37;4.20;;;11.10;99.90;;;;;;5085825;28;20506;-69
2023/12/21 06:33:50;;;;;;;3.83;3.63;;;11.20;99.90;;;;;;5074708;28;20528;-69
2023/12/21 06:36:16;;;;;;;3.70;3.60;;;11.10;99.90;;;;;;5075210;28;20942;-69
2023/12/21 06:38:42;;;;;;;4.07;3.80;;;11.10;99.90;;;;;;5080802;28;20829;-68
2023/12/21 06:41:08;;;;;;;4.30;4.00;;;11.10;99.90;;;;;;5075101;28;20423;-69
2023/12/21 06:43:34;;;;;;;4.30;4.10;;;11.10;99.90;;;;;;5090437;28;20423;-70
2023/12/21 06:46:01;;;;;;;3.90;3.73;;;11.00;99.90;;;;;;5090975;28;20414;-70
2023/12/21 06:48:27;;;;;;;4.03;3.90;;;11.10;99.90;;;;;;5080005;28;20215;-71
2023/12/21 06:50:53;;;;;;;4.00;3.90;;;11.10;99.90;;;;;;5076007;28;20522;-70
2023/12/21 06:53:18;;;;;;;4.03;3.93;;;11.10;99.90;;;;;;5074101;28;20173;-70
2023/12/21 06:55:44;;;;;;;4.43;4.23;;;11.10;99.90;;;;;;5091681;28;20176;-71
2023/12/21 06:58:10;;;;;;;4.03;3.90;;;11.10;99.90;;;;;;5092167;28;20190;-69
2023/12/21 07:00:36;;;;;;;4.37;4.17;;;11.10;99.90;;;;;;5092575;28;20421;-70
2023/12/21 07:03:03;;;;;;;4.13;3.93;;;11.10;99.90;;;;;;5074463;28;20177;-69
2023/12/21 07:05:28;;;;;;;3.73;3.50;;;11.10;99.90;;;;;;5088915;28;20632;-69
2023/12/21 07:07:54;;;;;;;3.87;3.67;;;11.10;99.90;;;;;;5074541;28;20460;-69
2023/12/21 07:10:23;;;;;;;3.80;3.60;;;11.10;99.90;;;;;;5073644;28;20209;-69
2023/12/21 07:12:49;;;;;;;3.60;3.40;;;11.10;99.90;;;;;;5073026;28;20210;-69
2023/12/21 07:15:16;;;;;;;4.00;3.90;;;11.10;99.90;;;;;;5073203;28;20486;-69
2023/12/21 07:17:42;;;;;;;4.20;3.97;;;11.10;99.90;;;;;;5074154;28;20169;-69
2023/12/21 07:20:09;;;;;;;4.23;3.93;;;11.10;99.90;;;;;;5074135;28;20401;-69
2023/12/21 07:22:34;;;;;;;4.20;4.00;;;11.10;99.90;;;;;;5089095;28;20507;-73
2023/12/21 07:25:00;;;;;;;4.63;4.43;;;11.10;99.90;;;;;;5076555;28;20434;-74
2023/12/21 07:27:26;;;;;;;4.37;4.17;;;11.10;99.90;;;;;;5077605;28;20174;-69
2023/12/21 07:29:51;;;;;;;4.97;4.67;;;11.20;99.90;;;;;;5094168;28;20179;-69
2023/12/21 07:32:17;;;;;;;4.70;4.40;;;11.10;99.90;;;;;;5083399;28;20184;-69
2023/12/21 07:34:43;;;;;;;5.13;4.80;;;11.00;99.90;;;;;;5072860;28;20173;-70
2023/12/21 07:37:12;;;;;;;5.23;4.83;;;11.10;99.90;;;;;;5074880;28;20186;-70
2023/12/21 07:39:37;;;;;;;4.90;4.53;;;11.00;99.90;;;;;;5088851;28;20260;-70
2023/12/21 07:42:03;;;;;;;5.10;4.80;;;11.10;99.90;;;;;;5073288;28;20444;-70
2023/12/21 07:44:30;;;;;;;5.30;5.00;;;11.20;99.90;;;;;;5071769;28;20174;-70
2023/12/21 07:46:56;;;;;;;5.00;4.70;;;11.20;99.90;;;;;;5072579;28;20781;-70
2023/12/21 07:49:22;;;;;;;4.30;4.00;;;11.20;99.90;;;;;;5080845;28;20475;-69
2023/12/21 07:51:48;;;;;;;4.73;4.43;;;11.20;99.90;;;;;;5094934;28;20173;-69
2023/12/21 07:54:14;;;;;;;4.70;4.40;;;11.10;99.90;;;;;;5072523;28;20426;-68
2023/12/21 07:56:39;;;;;;;7.20;3.90;;;11.20;99.90;;;;;;5094322;28;20183;-69
2023/12/21 07:59:07;;;;;;;4.40;4.20;;;11.20;99.90;;;;;;5102706;28;20180;-65
2023/12/21 08:01:33;;;;;;;4.20;4.10;;;11.10;99.90;;;;;;5107247;28;20653;-66
2023/12/21 08:03:59;;;;;;;4.30;4.00;;;11.20;99.90;;;;;;5088678;28;20425;-65
2023/12/21 08:06:25;;;;;;;4.30;4.00;;;11.20;99.90;;;;;;5084031;28;20419;-65
2023/12/21 08:08:54;;;;;;;4.07;3.80;;;11.20;99.90;;;;;;5093878;28;20457;-64
2023/12/21 08:11:22;;;;;;;4.30;4.10;;;11.30;99.90;;;;;;5094643;28;20402;-64
2023/12/21 08:13:50;;;;;;;4.20;4.00;;;11.30;99.90;;;;;;5093068;28;20409;-64
2023/12/21 08:16:17;;;;;;;4.70;4.43;;;11.30;99.90;;;;;;5089600;28;20406;-64
2023/12/21 08:18:44;;;;;;;4.27;4.00;;;11.40;99.90;;;;;;5092397;28;20444;-63
2023/12/21 08:21:10;;;;;;;4.60;4.30;;;11.40;99.90;;;;;;5092692;28;20781;-65
2023/12/21 08:23:36;;;;;;;4.70;4.30;;;11.40;99.90;;;;;;5089400;28;20412;-64
2023/12/21 08:26:03;;;;;;;3.90;3.70;;;11.40;99.90;;;;;;5092312;28;20402;-64
2023/12/21 08:28:30;;;;;;;4.20;4.00;;;11.50;99.90;;;;;;5090931;28;20200;-64
2023/12/21 08:30:56;;;;;;;4.27;4.00;;;11.50;99.90;;;;;;5091032;28;20436;-65
2023/12/21 08:33:22;;;;;;;4.30;4.07;;;11.50;99.90;;;;;;5090036;28;20422;-64
2023/12/21 08:35:48;;;;;;;4.27;4.07;;;11.50;99.90;;;;;;5089289;28;20438;-64
2023/12/21 08:38:14;;;;;;;4.50;4.30;;;11.50;99.90;;;;;;5090880;28;20568;-61
2023/12/21 08:40:40;;;;;;;4.70;4.40;;;11.50;99.90;;;;;;5105170;28;20530;-65
2023/12/21 08:43:05;;;;;;;4.70;4.40;;;11.60;99.90;;;;;;5111680;28;20511;-64
2023/12/21 08:45:32;;;;;;;5.03;4.73;;;11.50;99.90;;;;;;5091237;28;20192;-65
2023/12/21 08:47:58;;;;;;;4.90;4.70;;;11.70;99.90;;;;;;5081777;28;20211;-64
2023/12/21 08:50:24;;;;;;;4.83;4.63;;;11.70;99.90;;;;;;5102030;28;20422;-64
2023/12/21 08:52:50;;;;;;;4.10;4.00;;;11.70;99.90;;;;;;5091641;28;20418;-63
2023/12/21 08:55:16;;;;;;;4.63;4.30;;;11.80;99.90;;;;;;5090613;28;20958;-66
2023/12/21 08:57:42;;;;;;;4.03;3.83;;;11.80;99.90;;;;;;5076497;28;20176;-65
2023/12/21 09:00:12;;;;;;;4.33;4.13;;;12.00;99.90;;;;;;5084274;28;20657;-65
2023/12/21 09:02:39;;;;;;;4.00;3.80;;;12.20;99.90;;;;;;5080288;28;20401;-65
2023/12/21 09:05:05;;;;;;;5.20;4.80;;;12.30;99.90;;;;;;5078306;28;20408;-70
2023/12/21 09:07:31;;;;;;;7.10;6.40;;;12.50;99.90;;;;;;5096256;28;20506;-65
2023/12/21 09:09:58;;;;;;;22.70;16.73;;;12.60;99.90;;;;;;5092804;28;20501;-65
2023/12/21 09:12:24;;;;;;;3.23;3.13;;;12.70;99.90;;;;;;5071892;28;20396;-68
2023/12/21 09:14:49;;;;;;;3.53;3.33;;;12.80;99.90;;;;;;5070418;28;20471;-66
2023/12/21 09:17:16;;;;;;;3.43;3.27;;;12.60;99.90;;;;;;5089762;28;20469;-63
2023/12/21 09:19:43;;;;;;;3.13;3.00;;;12.50;99.90;;;;;;5113029;28;20518;-67
2023/12/21 09:22:09;;;;;;;3.67;3.57;;;12.40;99.90;;;;;;5110180;28;20418;-66
2023/12/21 09:24:35;;;;;;;3.77;3.57;;;12.20;99.90;;;;;;5089606;28;20425;-66
2023/12/21 09:27:01;;;;;;;3.43;3.33;;;12.10;99.90;;;;;;5092433;28;20406;-68
2023/12/21 09:29:27;;;;;;;3.20;3.10;;;12.00;99.90;;;;;;5105854;28;20461;-67
2023/12/21 09:31:53;;;;;;;3.50;3.40;;;11.90;99.90;;;;;;5112793;28;20402;-68
2023/12/21 09:34:19;;;;;;;3.30;3.20;;;11.80;99.90;;;;;;5112228;28;20180;-68
2023/12/21 09:36:44;;;;;;;3.33;3.23;;;11.80;99.90;;;;;;5112745;28;20175;-68
2023/12/21 09:39:13;;;;;;;3.57;3.47;;;11.70;99.90;;;;;;5110479;28;20187;-67
2023/12/21 09:41:40;;;;;;;3.50;3.40;;;11.50;99.90;;;;;;5101868;28;20538;-66
2023/12/21 09:44:06;;;;;;;3.33;3.23;;;11.50;99.90;;;;;;5075951;28;20540;-69
2023/12/21 09:46:39;;;;;;;3.47;3.30;;;11.50;99.90;;;;;;5103142;28;20422;-67
2023/12/21 09:49:09;;;;;;;3.40;3.30;;;11.50;99.90;;;;;;5094209;28;20462;-68
2023/12/21 09:51:36;;;;;;;3.37;3.27;;;11.60;99.90;;;;;;5060054;28;20506;-76
2023/12/21 09:54:04;;;;;;;3.67;3.50;;;11.50;99.90;;;;;;5079080;28;20518;-68
2023/12/21 09:56:31;;;;;;;3.30;3.20;;;11.50;99.90;;;;;;5088169;28;20806;-67
2023/12/21 09:58:58;;;;;;;3.90;3.80;;;11.50;99.90;;;;;;5091809;28;20429;-71
2023/12/21 10:01:24;;;;;;;3.50;3.40;;;11.40;99.90;;;;;;5087018;28;20414;-67
2023/12/21 10:03:50;;;;;;;3.63;3.53;;;11.40;99.90;;;;;;5085663;28;20782;-67
2023/12/21 10:06:16;;;;;;;4.00;3.80;;;11.50;99.90;;;;;;5082055;28;20526;-69
2023/12/21 10:08:42;;;;;;;3.50;3.30;;;11.40;99.90;;;;;;5083291;28;20261;-66
2023/12/21 10:11:08;;;;;;;3.60;3.50;;;11.40;99.90;;;;;;5076376;28;20422;-68
2023/12/21 10:13:34;;;;;;;3.60;3.50;;;11.40;99.90;;;;;;5101450;28;20782;-67
2023/12/21 10:16:03;;;;;;;3.83;3.73;;;11.40;99.90;;;;;;5080645;28;20465;-65
2023/12/21 10:18:29;;;;;;;3.10;3.10;;;11.50;99.90;;;;;;5090454;28;20429;-67
2023/12/21 10:20:55;;;;;;;3.30;3.20;;;11.40;99.90;;;;;;5085280;28;20420;-67
2023/12/21 10:23:24;;;;;;;3.07;2.97;;;11.40;99.90;;;;;;5083018;28;20451;-66
2023/12/21 10:25:52;;;;;;;3.10;3.00;;;11.40;99.90;;;;;;5087522;28;20418;-67
2023/12/21 10:28:21;;;;;;;3.07;3.07;;;11.40;99.90;;;;;;5077995;28;20452;-69
2023/12/21 10:30:53;;;;;;;3.10;3.10;;;11.50;99.90;;;;;;5074471;28;20407;-68
2023/12/21 10:33:20;;;;;;;3.03;3.00;;;11.50;99.90;;;;;;5074658;28;20462;-69
2023/12/21 10:35:46;;;;;;;3.70;3.60;;;11.50;99.90;;;;;;5109402;28;20457;-69
2023/12/21 10:38:12;;;;;;;3.00;2.90;;;11.50;99.90;;;;;;5115645;28;20430;-68
2023/12/21 10:40:38;;;;;;;3.20;3.00;;;11.40;99.90;;;;;;5114735;28;20812;-69
2023/12/21 10:43:04;;;;;;;3.43;3.23;;;11.40;99.90;;;;;;5115142;28;20394;-68
2023/12/21 10:45:30;;;;;;;3.00;2.90;;;11.40;99.90;;;;;;5114602;28;20173;-67
2023/12/21 10:47:56;;;;;;;3.13;3.03;;;11.50;99.90;;;;;;5115371;28;20212;-68
2023/12/21 10:50:25;;;;;;;3.30;3.20;;;11.50;99.90;;;;;;5115072;28;20260;-68
2023/12/21 10:52:52;;;;;;;3.10;3.07;;;11.50;99.90;;;;;;5106918;28;20426;-68
2023/12/21 10:55:18;;;;;;;3.07;2.97;;;11.50;99.90;;;;;;5115279;28;20405;-68
2023/12/21 10:57:46;;;;;;;2.90;2.80;;;11.50;99.90;;;;;;5096275;28;20928;-69
2023/12/21 11:00:15;;;;;;;2.70;2.70;;;11.50;99.90;;;;;;5096666;28;20174;-70
2023/12/21 11:02:46;;;;;;;3.60;3.10;;;11.50;99.90;;;;;;5114229;28;20402;-69
2023/12/21 11:05:20;;;;;;;2.60;2.60;;;11.50;99.90;;;;;;5115062;28;20406;-68
2023/12/21 11:07:50;;;;;;;3.07;3.00;;;11.50;99.90;;;;;;5113241;28;20499;-68
2023/12/21 11:10:19;;;;;;;2.90;2.90;;;11.60;99.90;;;;;;5114990;28;20480;-68
2023/12/21 11:12:44;;;;;;;2.87;2.87;;;11.60;99.90;;;;;;5114158;28;20406;-68
2023/12/21 11:15:13;;;;;;;3.10;3.00;;;11.60;99.90;;;;;;5113554;28;20458;-68
2023/12/21 11:17:42;;;;;;;3.27;3.17;;;11.60;99.90;;;;;;5114231;28;20169;-67
2023/12/21 11:20:12;;;;;;;3.30;3.20;;;11.60;99.90;;;;;;5114660;28;20409;-68
2023/12/21 11:22:39;;;;;;;3.50;3.40;;;11.60;99.90;;;;;;5113440;28;20406;-66
2023/12/21 11:25:11;;;;;;;3.30;3.20;;;11.50;99.90;;;;;;5111968;28;20516;-68
2023/12/21 11:27:41;;;;;;;3.50;3.40;;;11.50;99.90;;;;;;5114391;28;20388;-67
2023/12/21 11:30:11;;;;;;;3.70;3.60;;;11.50;99.90;;;;;;5113302;28;20486;-68
2023/12/21 11:32:47;;;;;;;3.50;3.40;;;11.50;99.90;;;;;;5112508;28;20406;-64
2023/12/21 11:35:23;;;;;;;4.10;4.00;;;11.50;99.90;;;;;;5110157;28;20428;-68
2023/12/21 11:37:50;;;;;;;4.00;3.90;;;11.50;99.90;;;;;;5114575;28;20414;-68
2023/12/21 11:40:17;;;;;;;3.80;3.70;;;11.50;99.90;;;;;;5111028;28;20776;-68
2023/12/21 11:42:46;;;;;;;3.73;3.63;;;11.60;99.90;;;;;;5113654;28;20409;-68
2023/12/21 11:45:23;;;;;;;4.23;4.10;;;11.60;99.90;;;;;;5114296;28;20931;-68
2023/12/21 11:47:54;;;;;;;4.43;4.23;;;11.60;99.90;;;;;;5114015;28;20467;-68
2023/12/21 11:50:22;;;;;;;4.73;4.50;;;11.60;99.90;;;;;;5113953;28;20390;-68
2023/12/21 11:52:49;;;;;;;4.47;4.20;;;11.60;99.90;;;;;;5113198;28;20413;-67
2023/12/21 11:55:27;;;;;;;5.30;4.93;;;11.60;99.90;;;;;;5114419;28;20505;-67
2023/12/21 11:58:19;;;;;;;5.57;5.37;;;11.60;99.90;;;;;;5113991;28;20435;-67
2023/12/21 12:00:49;;;;;;;5.80;5.40;;;11.60;99.90;;;;;;5113199;28;20798;-67
2023/12/21 12:03:16;;;;;;;6.67;6.17;;;11.70;99.90;;;;;;5111274;28;20496;-68
2023/12/21 12:05:42;;;;;;;6.40;6.00;;;11.70;99.90;;;;;;5111978;28;20451;-68
2023/12/21 12:08:08;;;;;;;5.93;5.53;;;11.70;99.90;;;;;;5113743;28;20457;-73
2023/12/21 12:10:34;;;;;;;6.50;6.10;;;11.80;99.90;;;;;;5112938;28;20417;-67
2023/12/21 12:13:02;;;;;;;6.30;5.77;;;11.80;99.90;;;;;;5095704;28;20409;-67
2023/12/21 12:15:29;;;;;;;7.33;5.80;;;11.80;99.90;;;;;;5113044;28;20462;-67
2023/12/21 12:17:54;;;;;;;6.53;6.23;;;11.80;99.90;;;;;;5112726;28;20986;-67
2023/12/21 12:20:20;;;;;;;6.70;6.30;;;11.80;99.90;;;;;;5113619;28;20440;-67
2023/12/21 12:22:47;;;;;;;5.50;5.30;;;11.80;99.90;;;;;;5111678;28;20714;-67
2023/12/21 12:25:16;;;;;;;5.60;5.10;;;11.80;99.90;;;;;;5079062;28;20550;-66
2023/12/21 12:27:43;;;;;;;5.97;5.47;;;11.80;99.90;;;;;;5092172;28;20772;-68
2023/12/21 12:30:11;;;;;;;5.17;4.97;;;11.90;99.90;;;;;;5089158;28;20430;-67
2023/12/21 12:32:37;;;;;;;4.50;4.20;;;11.90;99.90;;;;;;5092353;28;20418;-69
2023/12/21 12:35:06;;;;;;;4.50;4.30;;;11.90;99.90;;;;;;5088840;28;20918;-68
2023/12/21 12:37:32;;;;;;;4.63;4.43;;;12.00;99.90;;;;;;5072053;28;20931;-67
2023/12/21 12:39:58;;;;;;;4.20;4.00;;;12.00;99.90;;;;;;5074080;28;20426;-68
2023/12/21 12:42:25;;;;;;;4.30;4.10;;;12.00;99.90;;;;;;5072638;28;20200;-69
2023/12/21 12:44:53;;;;;;;4.10;3.70;;;12.00;99.90;;;;;;5082370;28;20422;-68